Time;durP1;ratioP1;P1;durP2;ratioP2;P2;SDS_P1;SDS_P2;PMS_P1;PMS_P2;Temp;Humidity;BMP_temperature;BMP_pressure;BME280_temperature;BME280_humidity;BME280_pressure;Samples;Min_cycle;Max_cycle;Signal;HPM_P1;HPM_P2
2022/02/03 00:00:32;;;;;;;6.72;6.07;;;;;;;6.39;100.00;97361.56;5071270;28;20411;-66
2022/02/03 00:03:39;;;;;;;6.40;5.80;;;;;;;6.43;100.00;97360.19;5071399;28;20388;-66
2022/02/03 00:05:55;;;;;;;6.07;5.47;;;;;;;6.55;100.00;97365.72;5067657;28;20403;-66
2022/02/03 00:16:42;;;;;;;6.80;6.20;;;;;;;6.68;100.00;97360.63;5070523;28;20387;-69
2022/02/03 00:24:48;;;;;;;7.20;6.50;;;;;;;6.60;100.00;97355.53;5058860;28;20398;-66
2022/02/03 00:27:35;;;;;;;6.88;6.28;;;;;;;6.52;100.00;97353.09;5064559;28;20404;-66
2022/02/03 00:30:06;;;;;;;7.88;6.75;;;;;;;6.52;100.00;97366.88;5051041;28;20762;-67
2022/02/03 00:32:48;;;;;;;6.72;6.13;;;;;;;6.57;100.00;97364.56;5051010;28;20390;-66
2022/02/03 00:48:59;;;;;;;7.63;6.93;;;;;;;6.63;100.00;97352.59;5053876;28;20490;-66
2022/02/03 00:51:26;;;;;;;8.45;6.70;;;;;;;6.46;100.00;97351.22;5066473;28;20401;-66
2022/02/03 00:53:52;;;;;;;7.65;6.95;;;;;;;6.56;100.00;97357.72;5061003;28;20445;-67
2022/02/03 00:56:26;;;;;;;7.90;7.10;;;;;;;6.72;100.00;97350.63;5072635;28;20387;-67
2022/02/03 00:58:58;;;;;;;7.82;7.10;;;;;;;6.69;100.00;97344.00;5074263;28;20701;-66
2022/02/03 01:01:30;;;;;;;8.00;7.20;;;;;;;6.51;100.00;97348.88;5069397;28;20409;-66
2022/02/03 01:04:00;;;;;;;8.00;7.22;;;;;;;6.52;100.00;97351.25;5063221;28;20861;-67
2022/02/03 01:06:29;;;;;;;7.85;7.03;;;;;;;6.60;100.00;97355.53;5074423;28;20407;-70
2022/02/03 01:08:56;;;;;;;7.82;7.05;;;;;;;6.77;100.00;97356.09;5073874;28;20857;-67
2022/02/03 01:11:29;;;;;;;7.72;6.95;;;;;;;6.67;100.00;97357.22;5074332;28;20400;-67
2022/02/03 01:14:10;;;;;;;7.75;7.05;;;;;;;6.54;100.00;97351.09;5066275;28;20389;-67
2022/02/03 01:16:55;;;;;;;6.97;6.28;;;;;;;6.43;100.00;97348.97;5065911;28;20854;-67
2022/02/03 01:43:54;;;;;;;7.40;6.70;;;;;;;6.67;100.00;97336.38;5073576;28;20395;-66
2022/02/03 01:46:29;;;;;;;7.20;6.57;;;;;;;6.58;100.00;97341.88;5073239;28;20399;-66
2022/02/03 01:49:13;;;;;;;7.28;6.57;;;;;;;6.80;100.00;97335.66;5073521;28;20399;-67
2022/02/03 01:51:54;;;;;;;6.82;6.20;;;;;;;6.78;100.00;97337.66;5062015;28;20401;-67
2022/02/03 01:54:26;;;;;;;6.90;6.20;;;;;;;6.59;100.00;97336.50;5053742;28;20479;-67
2022/02/03 01:57:00;;;;;;;6.47;5.90;;;;;;;6.63;100.00;97332.53;5053461;28;20420;-66
2022/02/03 01:59:28;;;;;;;6.75;6.13;;;;;;;6.68;100.00;97329.38;5052698;28;20393;-67
2022/02/03 02:02:03;;;;;;;6.53;5.90;;;;;;;6.79;100.00;97320.25;5035771;28;20409;-66
2022/02/03 02:04:43;;;;;;;6.82;6.13;;;;;;;6.86;100.00;97314.06;5061536;28;20811;-66
2022/02/03 02:07:34;;;;;;;6.75;6.05;;;;;;;6.66;100.00;97319.13;5067531;28;20389;-66
2022/02/03 02:12:44;;;;;;;6.80;6.20;;;;;;;6.62;100.00;97325.72;5053563;28;20405;-66
2022/02/03 02:40:30;;;;;;;6.25;5.65;;;;;;;6.40;100.00;97305.09;5072479;28;20811;-66
2022/02/03 02:43:16;;;;;;;6.03;5.53;;;;;;;6.31;100.00;97294.00;5056853;28;20416;-68
2022/02/03 02:46:13;;;;;;;7.20;5.78;;;;;;;6.63;100.00;97295.28;5057524;28;20398;-67
2022/02/03 02:49:09;;;;;;;6.70;6.00;;;;;;;6.70;100.00;97288.31;5040119;28;20543;-66
2022/02/03 02:51:43;;;;;;;7.72;6.55;;;;;;;6.61;100.00;97292.06;5034618;28;20917;-67
2022/02/03 02:57:03;;;;;;;6.78;6.07;;;;;;;6.56;100.00;97294.41;5052171;28;20440;-66
2022/02/03 03:30:19;;;;;;;7.30;4.73;;;;;;;6.34;100.00;97272.00;5053209;28;20185;-67
2022/02/03 03:35:49;;;;;;;5.90;5.00;;;;;;;6.29;100.00;97266.56;5053491;28;20185;-67
2022/02/03 03:38:18;;;;;;;5.93;4.60;;;;;;;6.43;100.00;97274.28;5065459;28;20173;-66
2022/02/03 03:40:49;;;;;;;6.73;4.83;;;;;;;6.46;100.00;97265.31;5056059;28;20222;-66
2022/02/03 03:43:49;;;;;;;6.17;5.27;;;;;;;6.42;100.00;97261.44;5056640;28;20247;-67
2022/02/03 03:46:27;;;;;;;6.03;5.23;;;;;;;6.32;100.00;97253.16;5041301;28;20294;-67
2022/02/03 03:49:21;;;;;;;5.50;5.00;;;;;;;6.30;100.00;97249.97;5072081;28;20185;-70
2022/02/03 03:51:52;;;;;;;6.97;4.77;;;;;;;6.32;100.00;97258.38;5072439;28;20538;-67
2022/02/03 03:54:47;;;;;;;5.50;5.00;;;;;;;6.36;100.00;97247.38;5072431;28;20188;-67
2022/02/03 03:57:30;;;;;;;6.57;5.03;;;;;;;6.29;100.00;97249.16;5056581;28;20693;-66
2022/02/03 04:00:32;;;;;;;6.77;6.07;;;;;;;6.26;100.00;97241.69;5053152;28;20564;-67
2022/02/03 04:56:02;;;;;;;6.60;5.50;;;;;;;5.95;100.00;97210.00;5069716;28;20193;-67
2022/02/03 05:48:41;;;;;;;6.80;5.77;;;;;;;5.77;100.00;97164.41;5074038;28;20545;-66
2022/02/03 06:03:02;;;;;;;7.00;6.30;;;;;;;5.64;100.00;97156.47;5055921;28;20173;-67
2022/02/03 06:05:03;;;;;;;7.63;6.47;;;;;;;5.75;100.00;97165.56;5064852;28;20197;-66
2022/02/03 06:07:49;;;;;;;8.37;6.93;;;;;;;5.81;100.00;97160.44;5056508;28;20517;-66
2022/02/03 06:13:13;;;;;;;7.80;6.77;;;;;;;5.69;100.00;97153.31;5054322;28;20761;-67
2022/02/03 06:15:52;;;;;;;7.90;6.07;;;;;;;5.72;100.00;97161.56;5054088;28;20645;-66
2022/02/03 06:29:03;;;;;;;8.47;6.53;;;;;;;5.72;100.00;97155.56;5057743;28;20303;-67
2022/02/03 06:31:28;;;;;;;7.23;6.30;;;;;;;5.63;100.00;97156.69;5074001;28;20193;-66
2022/02/03 06:33:55;;;;;;;7.53;6.47;;;;;;;5.70;100.00;97153.13;5048754;28;20182;-66
2022/02/03 06:36:21;;;;;;;7.63;6.60;;;;;;;5.81;100.00;97154.44;5036162;28;20194;-66
2022/02/03 06:38:46;;;;;;;6.93;6.17;;;;;;;5.81;100.00;97144.84;5054758;28;20185;-66
2022/02/03 06:41:11;;;;;;;8.97;6.80;;;;;;;5.76;100.00;97141.19;5053299;28;20226;-67
2022/02/03 06:43:37;;;;;;;6.80;6.10;;;;;;;5.86;100.00;97152.06;5053424;28;20196;-66
2022/02/03 06:46:07;;;;;;;6.67;6.00;;;;;;;5.91;100.00;97139.34;5052693;28;20201;-66
2022/02/03 06:48:34;;;;;;;7.90;6.33;;;;;;;5.93;100.00;97137.34;5059417;28;20227;-66
2022/02/03 06:51:08;;;;;;;7.43;6.07;;;;;;;5.90;100.00;97135.16;5072330;28;20193;-66
2022/02/03 06:53:38;;;;;;;6.70;5.90;;;;;;;5.78;100.00;97121.81;5053719;28;20170;-66
2022/02/03 06:56:12;;;;;;;7.93;7.13;;;;;;;6.09;100.00;97131.06;5052899;28;20398;-66
2022/02/03 06:58:44;;;;;;;7.50;6.80;;;;;;;6.35;100.00;97136.47;5052619;28;21166;-67
2022/02/03 07:01:20;;;;;;;7.70;6.47;;;;;;;6.34;100.00;97139.25;5052280;28;20493;-66
2022/02/03 07:03:54;;;;;;;6.75;6.15;;;;;;;6.28;100.00;97134.81;5052190;28;20750;-67
2022/02/03 07:06:20;;;;;;;7.00;6.40;;;;;;;6.27;100.00;97147.00;5053080;28;20879;-67
2022/02/03 07:08:47;;;;;;;6.63;6.03;;;;;;;6.18;100.00;97145.56;5051912;28;20396;-67
2022/02/03 07:11:17;;;;;;;6.00;5.20;;;;;;;6.41;100.00;97158.31;5051847;28;20454;-66
2022/02/03 07:13:43;;;;;;;6.05;5.45;;;;;;;6.60;100.00;97148.00;5051956;28;20482;-66
2022/02/03 07:16:08;;;;;;;6.40;5.67;;;;;;;6.74;100.00;97148.91;5065972;28;20529;-66
2022/02/03 07:18:33;;;;;;;6.10;5.50;;;;;;;7.07;100.00;97147.22;5052115;28;20786;-66
2022/02/03 07:20:59;;;;;;;5.97;5.37;;;;;;;6.98;100.00;97143.16;5053305;28;20411;-66
2022/02/03 07:23:25;;;;;;;5.83;5.33;;;;;;;7.18;100.00;97145.84;5071507;28;20794;-68
2022/02/03 07:25:50;;;;;;;5.28;4.78;;;;;;;7.10;100.00;97144.22;5059703;28;20734;-69
2022/02/03 07:28:16;;;;;;;5.63;5.13;;;;;;;7.26;100.00;97140.44;5034050;28;20447;-69
2022/02/03 07:30:41;;;;;;;5.13;4.63;;;;;;;7.19;100.00;97138.84;5051680;28;20487;-69
2022/02/03 07:33:07;;;;;;;4.97;4.50;;;;;;;7.24;100.00;97145.06;5051961;28;20396;-69
2022/02/03 07:35:34;;;;;;;5.00;4.60;;;;;;;7.06;100.00;97139.59;5065080;28;20387;-69
2022/02/03 07:38:02;;;;;;;5.00;4.60;;;;;;;7.20;100.00;97135.22;5070925;28;20387;-69
2022/02/03 07:40:28;;;;;;;5.10;4.70;;;;;;;7.10;100.00;97136.41;5067248;28;20465;-69
2022/02/03 07:42:55;;;;;;;4.80;4.40;;;;;;;7.47;100.00;97127.25;5056153;28;20966;-77
2022/02/03 07:45:21;;;;;;;4.57;4.18;;;;;;;7.03;100.00;97114.72;5053257;28;20548;-73
2022/02/03 07:47:49;;;;;;;4.28;3.88;;;;;;;6.78;100.00;97110.22;5069474;28;20474;-75
2022/02/03 07:50:16;;;;;;;3.85;3.55;;;;;;;6.81;100.00;97108.03;5061320;28;20748;-70
2022/02/03 07:52:43;;;;;;;3.75;3.45;;;;;;;7.19;100.00;97105.72;5071673;28;20387;-71
2022/02/03 07:55:09;;;;;;;4.03;3.72;;;;;;;7.18;100.00;97093.72;5054967;28;20439;-70
2022/02/03 07:57:35;;;;;;;3.90;3.60;;;;;;;7.12;100.00;97097.13;5071294;28;20463;-70
2022/02/03 08:00:04;;;;;;;3.90;3.60;;;;;;;7.51;100.00;97089.38;5070374;28;20908;-75
2022/02/03 08:02:29;;;;;;;4.00;3.70;;;;;;;7.47;100.00;97103.78;5069211;28;20435;-71
2022/02/03 08:04:55;;;;;;;3.73;3.43;;;;;;;7.59;100.00;97106.59;5062925;28;20872;-69
2022/02/03 08:07:23;;;;;;;3.80;3.50;;;;;;;7.57;100.00;97100.81;5071189;28;20396;-69
2022/02/03 08:09:58;;;;;;;3.92;3.63;;;;;;;7.37;100.00;97079.91;5073424;28;20894;-75
2022/02/03 08:12:29;;;;;;;3.63;3.35;;;;;;;7.37;100.00;97073.88;5062803;28;20392;-70
2022/02/03 08:14:55;;;;;;;3.72;3.42;;;;;;;7.66;100.00;97080.53;5068039;28;20789;-70
2022/02/03 08:17:25;;;;;;;3.95;3.63;;;;;;;7.65;100.00;97071.09;5055539;28;20433;-69
2022/02/03 08:20:00;;;;;;;3.80;3.50;;;;;;;7.78;100.00;97068.50;5067612;28;20434;-69
2022/02/03 08:22:32;;;;;;;4.00;3.70;;;;;;;7.53;100.00;97063.88;5055066;28;20393;-70
2022/02/03 08:25:20;;;;;;;3.97;3.67;;;;;;;7.77;100.00;97070.28;5065831;28;21000;-69
2022/02/03 08:33:00;;;;;;;4.28;3.92;;;;;;;8.12;100.00;97067.44;5058188;28;20454;-70
2022/02/03 08:35:39;;;;;;;4.72;4.32;;;;;;;8.21;99.62;97056.56;5054841;28;20397;-70
2022/02/03 08:43:15;;;;;;;5.10;4.13;;;;;;;8.07;99.81;97046.38;5055107;28;21134;-70
2022/02/03 08:45:42;;;;;;;4.43;4.03;;;;;;;8.32;98.85;97048.13;5056585;28;20401;-70
2022/02/03 08:48:07;;;;;;;4.43;4.03;;;;;;;8.28;99.41;97049.53;5042475;28;20546;-69
2022/02/03 08:50:34;;;;;;;4.00;3.70;;;;;;;8.31;98.62;97056.16;5070792;28;20892;-70
2022/02/03 09:01:03;;;;;;;3.65;3.35;;;;;;;8.44;96.75;97055.34;5054909;28;20781;-70
2022/02/03 09:36:32;;;;;;;3.80;3.47;;;;;;;9.03;94.25;97027.09;5053945;28;20897;-72
2022/02/03 09:58:13;;;;;;;1.85;1.75;;;;;;;9.12;88.46;96986.63;5041352;28;20395;-70
2022/02/03 10:00:53;;;;;;;1.80;1.70;;;;;;;9.02;88.49;96988.13;5066766;28;20419;-70
2022/02/03 10:06:12;;;;;;;1.67;1.58;;;;;;;9.35;86.95;96988.69;5072694;28;20901;-70
2022/02/03 10:08:43;;;;;;;1.70;1.60;;;;;;;9.41;86.21;96990.44;5058464;28;20406;-70
2022/02/03 10:11:16;;;;;;;1.83;1.73;;;;;;;9.53;86.41;96986.09;5042273;28;20402;-69
2022/02/03 10:13:47;;;;;;;1.45;1.40;;;;;;;9.70;84.72;96988.97;5062665;28;20430;-70
2022/02/03 10:16:14;;;;;;;1.50;1.40;;;;;;;9.66;85.24;96981.75;5053103;28;20393;-70
2022/02/03 10:18:40;;;;;;;1.55;1.45;;;;;;;9.78;83.92;96982.66;5052639;28;20492;-69
2022/02/03 10:21:09;;;;;;;1.70;1.60;;;;;;;9.82;83.67;96984.63;5055368;28;20420;-69
2022/02/03 10:23:54;;;;;;;1.60;1.50;;;;;;;9.65;84.00;96974.91;5070248;28;20391;-70
2022/02/03 10:26:20;;;;;;;1.90;1.80;;;;;;;9.51;84.88;96972.44;5053109;28;20417;-70
2022/02/03 10:28:54;;;;;;;1.77;1.67;;;;;;;9.41;85.97;96955.63;5062877;28;20384;-70
2022/02/03 10:31:23;;;;;;;2.10;1.90;;;;;;;9.59;85.46;96940.75;5057906;28;20748;-70
2022/02/03 10:33:53;;;;;;;2.10;2.00;;;;;;;9.76;85.56;96933.13;5071909;28;20488;-70
2022/02/03 10:37:47;;;;;;;1.75;1.65;;;;;;;10.09;83.27;96943.25;5072275;28;20395;-69
2022/02/03 10:55:38;;;;;;;1.70;1.60;;;;;;;9.75;82.78;96881.81;5063296;28;20750;-74
2022/02/03 11:08:42;;;;;;;1.83;1.73;;;;;;;9.86;82.54;96852.28;5063256;28;20386;-68
2022/02/03 11:11:15;;;;;;;1.90;1.80;;;;;;;9.87;81.74;96847.84;5051807;28;20913;-69
2022/02/03 11:13:41;;;;;;;1.73;1.63;;;;;;;9.92;82.29;96851.41;5064083;28;20390;-70
2022/02/03 11:16:08;;;;;;;1.70;1.60;;;;;;;9.99;81.54;96849.50;5071279;28;20701;-69
2022/02/03 11:18:35;;;;;;;1.90;1.80;;;;;;;10.06;81.02;96838.94;5061194;28;20771;-69
2022/02/03 11:21:01;;;;;;;1.77;1.67;;;;;;;10.13;80.64;96831.00;5071343;28;20415;-69
2022/02/03 11:53:31;;;;;;;1.90;1.80;;;;;;;10.21;80.96;96773.88;5057646;28;20790;-69
2022/02/03 11:56:22;;;;;;;1.90;1.80;;;;;;;10.18;81.40;96758.63;5064964;28;20393;-73
2022/02/03 12:02:07;;;;;;;2.05;1.83;;;;;;;10.39;79.87;96763.34;5063483;28;20760;-70
2022/02/03 12:05:17;;;;;;;1.67;1.58;;;;;;;10.52;79.38;96749.25;5050797;28;20890;-70
2022/02/03 12:11:34;;;;;;;2.00;1.90;;;;;;;10.42;78.23;96741.91;5050286;28;20411;-71
2022/02/03 12:21:52;;;;;;;1.45;1.35;;;;;;;10.77;75.52;96735.91;5054974;28;20412;-70
2022/02/03 12:29:49;;;;;;;1.67;1.58;;;;;;;11.24;74.25;96732.19;5050990;28;20406;-69
2022/02/03 12:32:27;;;;;;;1.42;1.33;;;;;;;11.14;74.15;96741.69;5059496;28;20399;-69
2022/02/03 12:40:50;;;;;;;2.30;1.35;;;;;;;11.04;73.45;96729.13;5052767;28;20426;-70
2022/02/03 12:45:48;;;;;;;1.60;1.50;;;;;;;11.24;73.26;96682.34;5062238;28;20452;-70
2022/02/03 12:48:13;;;;;;;1.60;1.50;;;;;;;11.31;73.55;96690.09;5072455;28;20396;-70
2022/02/03 12:50:41;;;;;;;2.20;1.50;;;;;;;11.27;73.49;96684.50;5042487;28;20398;-70
2022/02/03 12:53:08;;;;;;;1.60;1.50;;;;;;;11.11;74.00;96677.38;5053005;28;20484;-71
2022/02/03 12:55:40;;;;;;;1.55;1.23;;;;;;;11.38;72.53;96664.50;5070959;28;20387;-71
2022/02/03 12:58:16;;;;;;;1.40;1.30;;;;;;;11.32;72.48;96672.50;5064176;28;20515;-71
2022/02/03 13:00:50;;;;;;;1.30;1.20;;;;;;;11.33;72.12;96664.41;5036116;28;20441;-70
2022/02/03 13:03:17;;;;;;;1.20;1.10;;;;;;;11.25;72.31;96670.84;5056340;28;20874;-70
2022/02/03 13:06:05;;;;;;;1.55;1.45;;;;;;;11.29;72.12;96673.78;5039542;28;20470;-70
2022/02/03 13:08:47;;;;;;;1.33;1.33;;;;;;;11.01;73.25;96655.38;5063003;28;20397;-75
2022/02/03 13:16:34;;;;;;;1.80;1.50;;;;;;;10.78;75.16;96650.97;5058749;28;20401;-70
2022/02/03 13:19:12;;;;;;;1.60;1.50;;;;;;;10.70;75.33;96643.50;5053565;28;20405;-70
2022/02/03 13:26:41;;;;;;;1.48;1.38;;;;;;;10.96;74.53;96647.41;5054215;28;20393;-70
2022/02/03 13:29:12;;;;;;;2.08;1.38;;;;;;;11.10;73.29;96635.63;5060104;28;20376;-70
2022/02/03 13:31:47;;;;;;;1.30;1.30;;;;;;;11.08;73.79;96625.38;5065741;28;20388;-70
2022/02/03 13:34:30;;;;;;;1.88;1.48;;;;;;;11.01;74.21;96623.91;5070294;28;20470;-71
2022/02/03 13:37:14;;;;;;;1.60;1.50;;;;;;;11.14;73.32;96594.81;5063752;28;20766;-70
2022/02/03 13:39:45;;;;;;;1.40;1.30;;;;;;;11.13;73.67;96599.25;5060547;28;20411;-70
2022/02/03 13:42:11;;;;;;;1.60;1.50;;;;;;;10.80;76.11;96610.41;5073633;28;20908;-69
2022/02/03 13:44:37;;;;;;;1.40;1.30;;;;;;;10.86;75.10;96621.81;5062720;28;20397;-70
2022/02/03 13:47:23;;;;;;;1.50;1.40;;;;;;;10.79;76.05;96626.38;5053489;28;20409;-70
2022/02/03 13:50:10;;;;;;;2.30;1.50;;;;;;;10.99;75.07;96605.78;5038681;28;20416;-71
2022/02/03 13:52:45;;;;;;;1.60;1.50;;;;;;;10.75;76.31;96596.41;5053871;28;20401;-71
2022/02/03 14:28:01;;;;;;;1.83;1.48;;;;;;;10.84;76.02;96590.56;5067980;28;20387;-71
2022/02/03 14:30:28;;;;;;;1.52;1.42;;;;;;;10.79;76.27;96589.66;5066481;28;20764;-70
2022/02/03 14:32:57;;;;;;;1.33;1.25;;;;;;;10.76;75.68;96588.28;5058382;28;20389;-71
2022/02/03 14:35:23;;;;;;;2.08;1.40;;;;;;;10.88;75.16;96584.84;5054813;28;20440;-71
2022/02/03 14:38:03;;;;;;;1.70;1.60;;;;;;;10.74;76.13;96582.50;5052301;28;20882;-70
2022/02/03 14:42:56;;;;;;;1.60;1.50;;;;;;;10.59;76.42;96589.28;5071911;28;20418;-76
2022/02/03 14:45:22;;;;;;;1.38;1.27;;;;;;;10.42;77.77;96583.94;5057361;28;20397;-72
2022/02/03 14:47:47;;;;;;;1.60;1.40;;;;;;;10.62;77.14;96573.88;5065675;28;20404;-70
2022/02/03 14:50:13;;;;;;;1.50;1.40;;;;;;;10.39;77.95;96566.84;5068861;28;20399;-73
2022/02/03 14:58:03;;;;;;;2.58;1.30;;;;;;;10.37;78.38;96566.25;5051916;28;21715;-70
2022/02/03 15:00:30;;;;;;;1.90;1.40;;;;;;;10.31;78.70;96559.31;5066658;28;20404;-69
2022/02/03 15:02:58;;;;;;;1.52;1.42;;;;;;;10.17;79.14;96560.59;5052019;28;20397;-70
2022/02/03 15:05:36;;;;;;;1.45;1.40;;;;;;;10.28;79.10;96551.94;5056477;28;20401;-70
2022/02/03 15:08:14;;;;;;;1.60;1.50;;;;;;;10.32;78.78;96552.25;5059612;28;20504;-73
2022/02/03 15:13:17;;;;;;;1.90;1.70;;;;;;;10.40;79.93;96557.16;5058369;28;20581;-70
2022/02/03 15:15:43;;;;;;;1.63;1.52;;;;;;;10.47;79.06;96531.63;5054630;28;20432;-70
2022/02/03 15:18:08;;;;;;;1.60;1.50;;;;;;;10.66;78.49;96558.47;5047785;28;20488;-70
2022/02/03 15:20:35;;;;;;;1.70;1.60;;;;;;;10.17;80.17;96546.72;5068595;28;20411;-70
2022/02/03 15:23:01;;;;;;;1.60;1.50;;;;;;;9.85;81.55;96564.56;5056412;28;20381;-70
2022/02/03 15:25:27;;;;;;;2.30;1.50;;;;;;;9.75;82.78;96554.66;5053691;28;20897;-69
2022/02/03 15:27:54;;;;;;;1.85;1.50;;;;;;;9.81;82.24;96545.88;5060509;28;20389;-70
2022/02/03 15:30:20;;;;;;;4.50;1.80;;;;;;;9.81;82.14;96550.31;5055158;28;20890;-75
2022/02/03 15:32:45;;;;;;;1.90;1.70;;;;;;;9.89;82.31;96552.63;5034076;28;20507;-71
2022/02/03 15:37:49;;;;;;;1.70;1.60;;;;;;;9.66;83.07;96552.59;5067743;28;20419;-70
2022/02/03 15:40:22;;;;;;;1.60;1.50;;;;;;;9.58;83.83;96554.50;5062527;28;20899;-70
2022/02/03 15:42:56;;;;;;;1.80;1.70;;;;;;;9.61;83.92;96553.28;5050163;28;20445;-70
2022/02/03 15:45:22;;;;;;;1.50;1.40;;;;;;;9.52;84.54;96550.22;5066352;28;20515;-69
2022/02/03 15:47:53;;;;;;;1.80;1.70;;;;;;;9.43;85.34;96548.91;5051520;28;20393;-72
2022/02/03 15:59:53;;;;;;;2.80;1.88;;;;;;;9.23;86.77;96552.88;5051025;28;20520;-71
2022/02/03 16:17:01;;;;;;;2.83;2.10;;;;;;;9.06;88.60;96542.25;5057923;28;20419;-71
2022/02/03 16:19:34;;;;;;;2.22;2.13;;;;;;;8.89;89.52;96538.66;5054636;28;20393;-71
2022/02/03 16:22:10;;;;;;;2.28;2.10;;;;;;;8.84;89.98;96520.22;5071214;28;20499;-72
2022/02/03 16:50:24;;;;;;;2.63;2.42;;;;;;;8.53;91.84;96539.50;5069622;28;20401;-70
2022/02/03 16:51:47;;;;;;;2.47;2.28;;;;;;;8.52;91.54;96528.28;5053690;28;20409;-69
2022/02/03 16:54:15;;;;;;;2.20;2.10;;;;;;;8.44;91.44;96531.19;5039244;28;20409;-70
2022/02/03 16:56:42;;;;;;;2.10;2.00;;;;;;;8.30;92.78;96534.97;5072441;28;20488;-70
2022/02/03 16:59:07;;;;;;;2.10;2.00;;;;;;;8.37;91.80;96538.28;5056233;28;21003;-70
2022/02/03 17:01:32;;;;;;;2.07;1.97;;;;;;;8.56;90.84;96541.69;5054421;28;20530;-75
2022/02/03 17:03:58;;;;;;;2.25;2.15;;;;;;;8.28;91.68;96542.19;5066441;28;20413;-70
2022/02/03 17:06:23;;;;;;;2.30;2.20;;;;;;;8.20;92.05;96553.69;5054489;28;20483;-70
2022/02/03 17:08:49;;;;;;;2.57;2.37;;;;;;;8.05;92.97;96536.81;5040950;28;20405;-70
2022/02/03 17:11:15;;;;;;;3.10;2.47;;;;;;;8.26;92.05;96552.03;5063870;28;20393;-70
2022/02/03 17:13:40;;;;;;;2.40;2.20;;;;;;;8.43;91.17;96550.47;5057379;28;20393;-70
2022/02/03 17:16:06;;;;;;;2.60;2.40;;;;;;;8.10;92.33;96547.38;5035912;28;20407;-70
2022/02/03 17:18:32;;;;;;;2.77;2.57;;;;;;;8.06;92.78;96538.41;5058279;28;20261;-69
2022/02/03 17:20:57;;;;;;;2.67;2.47;;;;;;;8.10;91.88;96532.53;5072540;28;20213;-69
2022/02/03 17:23:25;;;;;;;2.67;2.47;;;;;;;7.94;93.08;96533.09;5071765;28;20177;-69
2022/02/03 17:28:29;;;;;;;2.60;2.40;;;;;;;7.96;93.20;96527.66;5074902;28;20201;-70
2022/02/03 17:31:00;;;;;;;3.10;2.60;;;;;;;8.13;91.98;96526.88;5073080;28;20234;-69
2022/02/03 18:06:28;;;;;;;4.47;3.03;;;;;;;7.41;96.78;96559.63;5069918;28;20187;-69
2022/02/03 18:08:57;;;;;;;5.33;3.37;;;;;;;7.34;96.78;96556.28;5064314;28;20286;-69
2022/02/03 18:45:52;;;;;;;3.40;3.10;;;;;;;7.30;98.52;96543.88;5065288;28;20214;-69
2022/02/03 18:51:29;;;;;;;5.67;3.43;;;;;;;7.08;100.00;96544.22;5073202;28;20286;-68
2022/02/03 19:09:47;;;;;;;6.27;4.57;;;;;;;6.77;100.00;96535.59;5065362;28;20591;-70
2022/02/03 19:25:49;;;;;;;6.40;5.73;;;;;;;6.47;100.00;96519.69;5071632;28;20555;-69
2022/02/03 20:08:11;;;;;;;9.80;7.70;;;;;;;6.19;100.00;96522.59;5022039;28;20198;-69
2022/02/03 20:10:43;;;;;;;11.20;7.67;;;;;;;6.09;100.00;96532.66;5019313;28;20186;-70
2022/02/03 20:13:09;;;;;;;8.83;7.87;;;;;;;6.04;100.00;96535.06;5015486;28;20211;-70
2022/02/03 20:15:37;;;;;;;8.83;7.83;;;;;;;6.31;100.00;96526.16;5011696;28;20243;-69
2022/02/03 20:18:11;;;;;;;10.53;8.30;;;;;;;6.47;100.00;96520.50;5014294;28;20241;-70
2022/02/03 20:20:41;;;;;;;10.80;7.87;;;;;;;6.38;100.00;96513.94;5015975;28;20187;-69
2022/02/03 20:23:10;;;;;;;9.67;8.27;;;;;;;6.21;100.00;96521.41;5021999;28;20183;-70
2022/02/03 20:25:37;;;;;;;10.53;8.20;;;;;;;6.13;100.00;96506.00;5030698;28;20187;-70
2022/02/03 20:28:06;;;;;;;12.17;8.10;;;;;;;6.02;100.00;96511.84;5030458;28;20644;-70
2022/02/03 20:30:33;;;;;;;9.87;8.07;;;;;;;5.96;100.00;96510.09;5018359;28;20193;-69
2022/02/03 20:32:58;;;;;;;9.53;7.57;;;;;;;6.26;100.00;96515.56;5031611;28;20213;-70
2022/02/03 20:35:23;;;;;;;9.10;8.13;;;;;;;6.27;100.00;96511.97;5030463;28;20183;-71
2022/02/03 20:37:49;;;;;;;10.23;9.17;;;;;;;6.44;100.00;96517.50;5020963;28;20228;-71
2022/02/03 20:40:15;;;;;;;9.83;8.73;;;;;;;6.35;100.00;96516.16;5039177;28;20268;-68
2022/02/03 20:42:40;;;;;;;11.17;8.50;;;;;;;6.22;100.00;96522.22;5056673;28;20549;-68
2022/02/03 20:45:07;;;;;;;10.40;8.07;;;;;;;6.09;100.00;96524.84;5060290;28;20209;-69
2022/02/03 20:47:32;;;;;;;10.97;8.50;;;;;;;6.29;100.00;96522.19;5045807;28;20552;-69
2022/02/03 20:50:04;;;;;;;11.53;8.83;;;;;;;6.12;100.00;96521.84;5036992;28;20182;-69
2022/02/03 20:52:30;;;;;;;12.20;10.07;;;;;;;6.23;100.00;96523.81;5081213;28;20196;-70
2022/02/03 20:54:55;;;;;;;12.33;9.40;;;;;;;5.98;100.00;96521.06;5064959;28;20565;-69
2022/02/03 20:57:20;;;;;;;13.47;10.17;;;;;;;6.13;100.00;96515.63;5051560;28;20189;-69
2022/02/03 21:02:39;;;;;;;13.40;10.10;;;;;;;6.06;100.00;96523.47;5069862;28;20200;-68
2022/02/03 21:07:30;;;;;;;13.50;10.83;;;;;;;6.04;100.00;96527.25;5060228;28;20201;-69
2022/02/03 21:09:55;;;;;;;13.97;10.23;;;;;;;5.97;100.00;96535.06;5057479;28;20190;-69
2022/02/03 21:12:21;;;;;;;12.73;9.83;;;;;;;5.93;100.00;96528.69;5063022;28;20879;-69
2022/02/03 21:14:53;;;;;;;13.43;10.43;;;;;;;5.87;100.00;96519.09;5064451;28;20186;-69
2022/02/03 21:17:18;;;;;;;13.10;9.70;;;;;;;5.95;100.00;96518.09;5054453;28;20174;-70
2022/02/03 21:19:43;;;;;;;12.73;10.17;;;;;;;6.07;100.00;96519.88;5055277;28;20186;-69
2022/02/03 21:22:09;;;;;;;13.33;10.23;;;;;;;5.99;100.00;96508.88;5074316;28;20197;-69
2022/02/03 21:24:34;;;;;;;15.70;11.67;;;;;;;5.95;100.00;96513.69;5071264;28;20698;-69
2022/02/03 21:27:00;;;;;;;12.80;10.73;;;;;;;5.95;100.00;96507.69;5043796;28;20186;-69
2022/02/03 21:29:27;;;;;;;12.57;10.07;;;;;;;5.89;100.00;96505.91;5054596;28;20576;-68
2022/02/03 21:31:52;;;;;;;14.97;10.17;;;;;;;6.07;100.00;96501.66;5054975;28;20555;-68
2022/02/03 21:34:21;;;;;;;14.07;10.50;;;;;;;5.87;100.00;96511.28;5062729;28;20190;-68
2022/02/03 21:36:53;;;;;;;12.77;10.43;;;;;;;5.87;100.00;96506.09;5062539;28;20645;-68
2022/02/03 21:39:18;;;;;;;13.73;10.37;;;;;;;5.79;100.00;96501.91;5064510;28;20673;-68
2022/02/03 21:41:44;;;;;;;13.70;10.67;;;;;;;6.01;100.00;96506.88;5057454;28;20198;-68
2022/02/03 21:44:12;;;;;;;14.57;10.60;;;;;;;5.83;100.00;96500.47;5055928;28;20272;-68
2022/02/03 21:46:38;;;;;;;11.70;9.70;;;;;;;5.97;100.00;96500.44;5066482;28;20178;-68
2022/02/03 21:49:03;;;;;;;12.07;9.90;;;;;;;5.98;100.00;96499.44;5074010;28;20191;-68
2022/02/03 21:51:30;;;;;;;13.57;10.33;;;;;;;5.81;100.00;96488.66;5075794;28;20189;-68
2022/02/03 21:53:56;;;;;;;13.43;9.83;;;;;;;5.69;100.00;96504.09;5044894;28;20289;-69
2022/02/03 21:56:22;;;;;;;12.40;9.57;;;;;;;5.71;100.00;96503.88;5062930;28;20193;-68
2022/02/03 21:58:48;;;;;;;12.33;9.43;;;;;;;5.78;100.00;96502.09;5053716;28;20190;-68
2022/02/03 22:01:15;;;;;;;12.73;10.00;;;;;;;5.78;100.00;96507.28;5061101;28;20243;-68
2022/02/03 22:03:40;;;;;;;13.90;9.63;;;;;;;5.80;100.00;96508.66;5064271;28;20221;-68
2022/02/03 22:06:06;;;;;;;11.43;9.73;;;;;;;5.79;100.00;96506.28;5072836;28;20201;-69
2022/02/03 22:08:31;;;;;;;13.53;9.97;;;;;;;6.00;100.00;96513.88;5073752;28;20545;-69
2022/02/03 22:10:59;;;;;;;12.07;8.67;;;;;;;5.98;100.00;96504.66;5069780;28;20184;-70
2022/02/03 22:13:33;;;;;;;13.03;9.03;;;;;;;5.91;100.00;96511.69;5059452;28;20239;-69
2022/02/03 22:15:59;;;;;;;14.00;8.87;;;;;;;5.73;100.00;96513.09;5059725;28;20177;-69
2022/02/03 22:18:25;;;;;;;14.33;9.27;;;;;;;5.73;100.00;96507.91;5071194;28;20220;-68
2022/02/03 22:20:59;;;;;;;12.30;8.97;;;;;;;5.82;100.00;96501.47;5073161;28;20205;-68
2022/02/03 22:23:45;;;;;;;13.53;8.60;;;;;;;5.60;100.00;96502.72;5064837;28;20189;-68
2022/02/03 22:44:54;;;;;;;11.65;8.60;;;;;;;5.86;100.00;96512.25;5072531;28;20423;-68
2022/02/03 22:47:34;;;;;;;10.13;8.57;;;;;;;5.82;100.00;96511.88;5062873;28;20844;-68
2022/02/03 22:49:59;;;;;;;11.18;8.68;;;;;;;6.10;100.00;96509.03;5052288;28;20408;-68
2022/02/03 22:52:25;;;;;;;9.85;8.13;;;;;;;5.77;100.00;96516.88;5052245;28;20886;-68
2022/02/03 22:54:50;;;;;;;8.43;7.53;;;;;;;5.76;100.00;96520.47;5057320;28;20400;-68
2022/02/03 22:57:15;;;;;;;10.23;7.83;;;;;;;5.84;100.00;96522.06;5063557;28;20399;-70
2022/02/03 23:02:09;;;;;;;9.45;8.23;;;;;;;5.75;100.00;96520.69;5056569;28;20508;-68
2022/02/03 23:04:35;;;;;;;10.27;7.72;;;;;;;5.61;100.00;96532.09;5052933;28;20486;-68
2022/02/03 23:07:14;;;;;;;11.13;8.90;;;;;;;5.80;100.00;96533.88;5052095;28;20458;-68